createdAt,value
2019-04-20T00:00:56.524Z,2.87
2019-04-20T00:03:34.389Z,3.20
2019-04-20T00:05:59.393Z,3.23
2019-04-20T00:08:33.172Z,3.30
2019-04-20T00:11:08.085Z,4.53
2019-04-20T00:13:46.922Z,3.63
2019-04-20T00:16:06.552Z,3.10
2019-04-20T00:18:43.163Z,3.10
2019-04-20T00:21:26.952Z,3.60
2019-04-20T00:24:07.384Z,3.67
2019-04-20T00:27:04.753Z,3.37
2019-04-20T00:29:25.446Z,3.03
2019-04-20T00:31:49.104Z,3.20
2019-04-20T00:34:18.077Z,3.20
2019-04-20T00:36:43.378Z,3.90
2019-04-20T00:39:16.512Z,3.23
2019-04-20T00:41:52.088Z,2.80
2019-04-20T00:44:26.056Z,3.40
2019-04-20T00:47:04.541Z,3.27
2019-04-20T00:49:41.331Z,4.77
2019-04-20T00:52:24.224Z,3.00
2019-04-20T00:54:28.436Z,3.50
2019-04-20T00:57:12.118Z,3.80
2019-04-20T00:59:51.422Z,3.47
2019-04-20T01:02:19.299Z,2.83
2019-04-20T01:04:53.954Z,3.80
2019-04-20T01:07:43.256Z,3.37
2019-04-20T01:10:11.074Z,4.20
2019-04-20T01:12:43.727Z,2.60
2019-04-20T01:15:24.533Z,3.30
2019-04-20T01:17:46.975Z,3.60
2019-04-20T01:20:17.955Z,4.00
2019-04-20T01:22:54.611Z,3.70
2019-04-20T01:25:28.445Z,3.10
2019-04-20T01:28:10.326Z,4.00
2019-04-20T01:30:33.975Z,3.77
2019-04-20T01:33:12.813Z,3.60
2019-04-20T01:35:49.132Z,3.00
2019-04-20T01:38:20.910Z,3.23
2019-04-20T01:40:36.166Z,3.63
2019-04-20T01:43:07.901Z,4.07
2019-04-20T01:45:41.935Z,3.50
2019-04-20T01:48:14.169Z,3.10
2019-04-20T01:50:49.963Z,4.30
2019-04-20T01:53:32.542Z,4.50
2019-04-20T01:56:08.716Z,3.73
2019-04-20T01:58:52.383Z,3.20
2019-04-20T02:01:33.600Z,3.03
2019-04-20T02:04:07.306Z,3.40
2019-04-20T02:06:43.441Z,2.90
2019-04-20T02:09:16.780Z,3.90
2019-04-20T02:11:46.873Z,3.93
2019-04-20T02:14:26.648Z,4.60
2019-04-20T02:16:53.048Z,3.50
2019-04-20T02:19:34.644Z,4.00
2019-04-20T02:22:07.637Z,3.20
2019-04-20T02:24:24.115Z,3.80
2019-04-20T02:26:55.702Z,3.50
2019-04-20T02:29:57.020Z,3.00
2019-04-20T02:32:29.301Z,3.90
2019-04-20T02:35:07.206Z,3.30
2019-04-20T02:40:26.969Z,3.40
2019-04-20T02:42:57.327Z,3.90
2019-04-20T02:48:01.254Z,4.17
2019-04-20T02:55:40.211Z,3.30
2019-04-20T02:58:06.986Z,4.40
2019-04-20T03:00:33.582Z,4.80
2019-04-20T03:02:52.866Z,3.60
2019-04-20T03:05:28.380Z,3.77
2019-04-20T03:08:09.582Z,3.80
2019-04-20T03:10:46.364Z,3.80
2019-04-20T03:13:15.957Z,4.10
2019-04-20T03:15:45.970Z,3.60
2019-04-20T03:18:14.959Z,3.70
2019-04-20T03:20:53.631Z,3.13
2019-04-20T03:26:13.881Z,3.40
2019-04-20T03:29:01.509Z,4.07
2019-04-20T03:32:15.031Z,3.70
2019-04-20T03:34:51.852Z,3.67
2019-04-20T03:36:53.163Z,3.57
2019-04-20T03:39:18.084Z,3.47
2019-04-20T03:41:39.855Z,3.67
2019-04-20T03:44:08.995Z,3.50
2019-04-20T03:46:45.114Z,4.00
2019-04-20T03:49:36.972Z,4.13
2019-04-20T03:52:03.716Z,3.93
2019-04-20T03:54:35.783Z,3.57
2019-04-20T03:57:34.418Z,4.30
2019-04-20T04:00:20.291Z,3.60
2019-04-20T04:03:12.453Z,3.77
2019-04-20T04:05:44.619Z,3.80
2019-04-20T04:08:14.858Z,4.00
2019-04-20T04:10:58.487Z,3.83
2019-04-20T04:13:17.164Z,4.20
2019-04-20T04:15:55.694Z,3.57
2019-04-20T04:18:29.694Z,3.33
2019-04-20T04:21:02.911Z,5.10
2019-04-20T04:23:44.557Z,3.70
2019-04-20T04:26:16.070Z,3.20
2019-04-20T04:28:47.506Z,3.13
2019-04-20T04:31:22.170Z,4.03
2019-04-20T04:36:22.238Z,3.63
2019-04-20T04:39:03.876Z,3.20
2019-04-20T04:41:35.505Z,3.87
2019-04-20T04:44:06.445Z,3.57
2019-04-20T04:46:18.574Z,3.40
2019-04-20T04:48:52.723Z,3.90
2019-04-20T04:51:29.245Z,3.70
2019-04-20T04:54:01.774Z,4.00
2019-04-20T04:56:28.528Z,4.10
2019-04-20T04:59:00.188Z,3.60
2019-04-20T05:01:33.730Z,4.07
2019-04-20T05:04:25.140Z,3.73
2019-04-20T05:06:48.546Z,3.33
2019-04-20T05:09:11.836Z,3.27
2019-04-20T05:11:40.801Z,3.50
2019-04-20T05:14:19.363Z,3.37
2019-04-20T05:16:59.010Z,3.70
2019-04-20T05:19:38.175Z,3.40
2019-04-20T05:22:22.995Z,4.10
2019-04-20T05:25:01.194Z,3.67
2019-04-20T05:27:44.098Z,3.33
2019-04-20T05:29:50.772Z,3.93
2019-04-20T05:32:32.573Z,3.97
2019-04-20T05:35:19.687Z,3.53
2019-04-20T05:37:49.875Z,3.10
2019-04-20T05:40:22.477Z,3.37
2019-04-20T05:42:59.210Z,4.27
2019-04-20T05:45:25.149Z,3.77
2019-04-20T05:47:59.092Z,3.70
2019-04-20T05:50:34.477Z,3.63
2019-04-20T05:53:08.784Z,3.20
2019-04-20T05:55:40.224Z,4.00
2019-04-20T05:58:20.748Z,3.63
2019-04-20T06:00:57.384Z,3.90
2019-04-20T06:03:20.285Z,3.50
2019-04-20T06:06:00.559Z,3.40
2019-04-20T06:08:34.256Z,3.33
2019-04-20T06:10:56.422Z,3.30
2019-04-20T06:13:32.668Z,3.70
2019-04-20T06:16:25.220Z,3.40
2019-04-20T06:19:06.601Z,3.20
2019-04-20T06:21:45.725Z,2.80
2019-04-20T06:24:36.242Z,3.00
2019-04-20T06:27:14.574Z,3.60
2019-04-20T06:29:31.183Z,3.33
2019-04-20T06:34:48.288Z,3.20
2019-04-20T06:37:10.112Z,3.40
2019-04-20T06:40:07.934Z,3.10
2019-04-20T06:42:17.687Z,3.20
2019-04-20T06:44:49.353Z,2.77
2019-04-20T06:47:24.638Z,3.80
2019-04-20T06:49:56.471Z,3.20
2019-04-20T06:52:47.708Z,3.10
2019-04-20T06:55:23.457Z,3.20
2019-04-20T06:58:01.330Z,3.63
2019-04-20T07:00:33.315Z,3.63
2019-04-20T07:03:07.939Z,3.10
2019-04-20T07:05:43.917Z,3.70
2019-04-20T07:08:30.132Z,3.23
2019-04-20T07:10:51.401Z,3.20
2019-04-20T07:13:11.812Z,3.33
2019-04-20T07:16:13.458Z,2.87
2019-04-20T07:19:01.348Z,2.80
2019-04-20T07:22:05.653Z,3.00
2019-04-20T07:24:35.036Z,3.40
2019-04-20T07:26:57.884Z,2.97
2019-04-20T07:29:33.283Z,2.97
2019-04-20T07:31:57.692Z,3.30
2019-04-20T07:34:31.804Z,2.80
2019-04-20T07:39:53.714Z,3.03
2019-04-20T07:42:29.084Z,3.30
2019-04-20T07:45:01.400Z,3.33
2019-04-20T07:47:38.704Z,3.10
2019-04-20T07:49:58.023Z,3.20
2019-04-20T07:52:12.226Z,2.90
2019-04-20T07:55:28.618Z,3.30
2019-04-20T07:57:34.172Z,2.90
2019-04-20T08:00:06.082Z,3.17
2019-04-20T08:03:03.618Z,3.23
2019-04-20T08:05:33.655Z,3.20
2019-04-20T08:08:13.190Z,3.03
2019-04-20T08:10:47.336Z,3.57
2019-04-20T08:13:30.583Z,3.40
2019-04-20T08:18:27.684Z,3.60
2019-04-20T08:21:05.946Z,3.40
2019-04-20T08:23:40.258Z,3.90
2019-04-20T08:26:03.967Z,3.43
2019-04-20T08:28:36.307Z,3.40
2019-04-20T08:31:29.710Z,3.00
2019-04-20T08:34:27.841Z,3.40
2019-04-20T08:36:55.719Z,3.10
2019-04-20T08:41:56.368Z,2.70
2019-04-20T08:44:54.018Z,3.53
2019-04-20T08:47:16.163Z,2.80
2019-04-20T08:49:34.826Z,4.00
2019-04-20T08:52:12.633Z,3.00
2019-04-20T08:54:32.956Z,2.90
2019-04-20T08:56:53.633Z,3.00
2019-04-20T08:59:21.012Z,3.43
2019-04-20T09:01:51.597Z,3.10
2019-04-20T09:04:33.746Z,3.20
2019-04-20T09:07:06.503Z,3.17
2019-04-20T09:09:49.443Z,2.50
2019-04-20T09:12:18.009Z,2.50
2019-04-20T09:14:34.798Z,2.47
2019-04-20T09:17:14.106Z,3.30
2019-04-20T09:19:52.744Z,2.60
2019-04-20T09:22:49.444Z,2.57
2019-04-20T09:25:57.730Z,2.87
2019-04-20T09:28:23.078Z,2.87
2019-04-20T09:31:08.521Z,3.43
2019-04-20T09:34:02.162Z,2.70
2019-04-20T09:36:42.310Z,2.83
2019-04-20T09:39:39.299Z,3.20
2019-04-20T09:42:15.204Z,3.03
2019-04-20T09:44:50.925Z,2.87
2019-04-20T09:47:26.376Z,2.73
2019-04-20T09:50:00.818Z,3.10
2019-04-20T09:52:37.751Z,2.70
2019-04-20T09:55:09.149Z,3.10
2019-04-20T09:57:43.897Z,2.67
2019-04-20T10:00:16.761Z,2.50
2019-04-20T10:02:34.804Z,3.00
2019-04-20T10:05:05.322Z,2.80
2019-04-20T10:07:38.665Z,2.83
2019-04-20T10:10:22.736Z,2.60
2019-04-20T10:12:41.848Z,2.60
2019-04-20T10:15:19.044Z,3.10
2019-04-20T10:17:45.733Z,2.80
2019-04-20T10:20:24.369Z,2.87
2019-04-20T10:22:48.820Z,3.20
2019-04-20T10:25:20.552Z,3.00
2019-04-20T10:27:51.602Z,3.33
2019-04-20T10:30:23.024Z,3.30
2019-04-20T10:32:55.424Z,3.70
2019-04-20T10:35:25.723Z,2.83
2019-04-20T10:38:05.427Z,3.40
2019-04-20T10:40:50.310Z,3.43
2019-04-20T10:43:10.289Z,3.63
2019-04-20T10:45:42.353Z,3.03
2019-04-20T10:48:17.221Z,3.13
2019-04-20T10:50:49.856Z,3.60
2019-04-20T10:53:21.893Z,2.70
2019-04-20T10:55:55.605Z,3.40
2019-04-20T10:58:27.602Z,3.43
2019-04-20T11:00:58.046Z,3.87
2019-04-20T11:03:30.173Z,4.03
2019-04-20T11:06:02.713Z,3.80
2019-04-20T11:08:33.203Z,3.50
2019-04-20T11:11:13.067Z,3.10
2019-04-20T11:13:37.480Z,3.67
2019-04-20T11:16:08.514Z,4.13
2019-04-20T11:18:39.763Z,3.30
2019-04-20T11:21:11.448Z,3.50
2019-04-20T11:23:42.443Z,3.30
2019-04-20T11:26:14.039Z,3.57
2019-04-20T11:28:46.117Z,3.00
2019-04-20T11:31:16.710Z,3.97
2019-04-20T11:33:48.021Z,3.73
2019-04-20T11:36:19.185Z,4.00
2019-04-20T11:38:51.085Z,3.60
2019-04-20T11:41:27.469Z,3.60
2019-04-20T11:43:55.886Z,3.90
2019-04-20T11:46:26.975Z,3.93
2019-04-20T11:48:57.457Z,3.97
2019-04-20T11:51:28.016Z,3.80
2019-04-20T11:53:58.594Z,4.70
2019-04-20T11:56:35.272Z,3.93
2019-04-20T11:59:02.950Z,4.43
2019-04-20T12:01:52.181Z,4.57
2019-04-20T12:04:33.759Z,4.53
2019-04-20T12:06:54.942Z,5.00
2019-04-20T12:09:26.285Z,4.60
2019-04-20T12:12:08.827Z,3.90
2019-04-20T12:14:30.454Z,4.43
2019-04-20T12:17:01.820Z,3.53
2019-04-20T12:19:35.925Z,4.30
2019-04-20T12:22:05.651Z,4.03
2019-04-20T12:24:36.381Z,4.40
2019-04-20T12:27:07.089Z,4.27
2019-04-20T12:29:38.636Z,4.90
2019-04-20T12:32:10.610Z,7.00
2019-04-20T12:34:41.509Z,4.97
2019-04-20T12:37:13.290Z,4.67
2019-04-20T12:39:44.919Z,4.77
2019-04-20T12:42:16.911Z,4.97
2019-04-20T12:44:48.052Z,4.40
2019-04-20T12:47:19.618Z,4.63
2019-04-20T12:49:51.575Z,5.37
2019-04-20T12:52:22.800Z,5.10
2019-04-20T12:54:54.486Z,5.27
2019-04-20T12:57:25.269Z,5.20
2019-04-20T12:59:57.181Z,5.00
2019-04-20T13:02:27.766Z,5.47
2019-04-20T13:04:59.439Z,4.77
2019-04-20T13:07:31.575Z,5.90
2019-04-20T13:10:03.951Z,5.87
2019-04-20T13:12:54.425Z,4.83
2019-04-20T13:15:36.427Z,4.73
2019-04-20T13:18:07.876Z,4.20
2019-04-20T13:20:39.725Z,5.40
2019-04-20T13:23:10.975Z,4.43
2019-04-20T13:25:41.507Z,5.40
2019-04-20T13:28:12.843Z,12.40
2019-04-20T13:30:43.930Z,7.57
2019-04-20T13:33:14.602Z,5.10
2019-04-20T13:35:46.118Z,4.93
2019-04-20T13:38:18.358Z,5.70
2019-04-20T13:40:48.810Z,5.20
2019-04-20T13:43:19.728Z,4.67
2019-04-20T13:45:50.993Z,4.77
2019-04-20T13:48:21.609Z,5.07
2019-04-20T13:50:52.143Z,4.27
2019-04-20T13:53:23.379Z,4.97
2019-04-20T13:55:54.218Z,4.70
2019-04-20T13:58:45.434Z,4.50
2019-04-20T14:01:35.743Z,4.97
2019-04-20T14:04:18.663Z,5.23
2019-04-20T14:06:51.501Z,5.27
2019-04-20T14:09:25.509Z,4.90
2019-04-20T14:12:12.990Z,4.37
2019-04-20T14:14:31.259Z,4.67
2019-04-20T14:17:03.163Z,5.27
2019-04-20T14:19:37.034Z,4.80
2019-04-20T14:22:08.319Z,4.80
2019-04-20T14:24:39.091Z,4.83
2019-04-20T14:27:10.901Z,4.63
2019-04-20T14:29:41.356Z,5.00
2019-04-20T14:32:12.169Z,4.43
2019-04-20T14:34:43.030Z,4.53
2019-04-20T14:37:14.954Z,4.13
2019-04-20T14:39:46.191Z,3.43
2019-04-20T14:42:27.843Z,5.00
2019-04-20T14:44:50.131Z,4.23
2019-04-20T14:47:21.723Z,4.20
2019-04-20T14:49:52.682Z,4.30
2019-04-20T14:52:23.920Z,3.87
2019-04-20T14:54:55.357Z,3.43
2019-04-20T14:57:27.622Z,4.33
2019-04-20T15:00:03.655Z,3.90
2019-04-20T15:02:34.360Z,3.73
2019-04-20T15:05:05.508Z,3.70
2019-04-20T15:07:36.440Z,4.53
2019-04-20T15:10:08.885Z,3.83
2019-04-20T15:12:49.014Z,3.33
2019-04-20T15:15:12.594Z,4.17
2019-04-20T15:17:48.225Z,4.13
2019-04-20T15:20:30.876Z,4.17
2019-04-20T15:23:05.490Z,4.13
2019-04-20T15:25:37.653Z,4.27
2019-04-20T15:28:10.421Z,3.90
2019-04-20T15:30:49.899Z,4.20
2019-04-20T15:33:21.093Z,4.20
2019-04-20T15:35:52.498Z,4.47
2019-04-20T15:38:23.087Z,3.50
2019-04-20T15:40:55.209Z,4.00
2019-04-20T15:43:27.867Z,3.93
2019-04-20T15:45:59.274Z,3.47
2019-04-20T15:48:30.131Z,3.53
2019-04-20T15:51:01.637Z,4.10
2019-04-20T15:53:33.515Z,4.80
2019-04-20T15:56:07.972Z,4.23
2019-04-20T15:58:38.597Z,4.00
2019-04-20T16:01:10.385Z,4.50
2019-04-20T16:04:11.772Z,3.70
2019-04-20T16:06:41.105Z,3.97
2019-04-20T16:09:12.410Z,4.13
2019-04-20T16:11:44.788Z,4.40
2019-04-20T16:14:15.558Z,4.20
2019-04-20T16:16:46.575Z,4.03
2019-04-20T16:19:32.556Z,4.10
2019-04-20T16:21:51.874Z,4.30
2019-04-20T16:24:27.775Z,3.73
2019-04-20T16:27:25.531Z,5.50
2019-04-20T16:29:57.765Z,3.20
2019-04-20T16:32:28.506Z,7.90
2019-04-20T16:35:00.320Z,5.50
2019-04-20T16:37:30.970Z,4.30
2019-04-20T16:40:04.108Z,3.43
2019-04-20T16:42:37.525Z,3.57
2019-04-20T16:45:09.445Z,5.13
2019-04-20T16:47:40.388Z,4.40
2019-04-20T16:50:11.197Z,5.13
2019-04-20T16:52:43.145Z,9.00
2019-04-20T16:55:14.759Z,5.23
2019-04-20T16:57:47.881Z,5.50
2019-04-20T17:00:19.854Z,4.00
2019-04-20T17:02:52.156Z,5.40
2019-04-20T17:05:23.042Z,3.30
2019-04-20T17:07:55.376Z,3.27
2019-04-20T17:10:26.578Z,3.40
2019-04-20T17:12:57.745Z,3.23
2019-04-20T17:15:29.575Z,3.17
2019-04-20T17:18:01.326Z,3.60
2019-04-20T17:20:32.730Z,3.47
2019-04-20T17:23:06.593Z,3.10
2019-04-20T17:25:37.718Z,3.33
2019-04-20T17:28:26.831Z,3.53
2019-04-20T17:31:19.859Z,3.00
2019-04-20T17:34:04.971Z,3.10
2019-04-20T17:36:30.933Z,2.83
2019-04-20T17:39:04.598Z,3.43
2019-04-20T17:41:48.940Z,2.73
2019-04-20T17:44:23.831Z,3.13
2019-04-20T17:46:48.966Z,3.57
2019-04-20T17:49:28.109Z,3.53
2019-04-20T17:52:07.687Z,2.90
2019-04-20T17:54:37.852Z,4.30
2019-04-20T17:57:09.342Z,2.80
2019-04-20T17:59:44.834Z,3.40
2019-04-20T18:03:06.170Z,2.80
2019-04-20T18:05:46.611Z,3.00
2019-04-20T18:08:20.717Z,3.10
2019-04-20T18:10:41.478Z,2.77
2019-04-20T18:13:09.484Z,3.40
2019-04-20T18:15:49.068Z,2.83
2019-04-20T18:18:42.033Z,2.80
2019-04-20T18:21:15.023Z,2.87
2019-04-20T18:23:48.548Z,2.80
2019-04-20T18:26:38.106Z,3.27
2019-04-20T18:29:16.700Z,2.30
2019-04-20T18:31:35.511Z,4.03
2019-04-20T18:34:17.957Z,3.27
2019-04-20T18:36:47.786Z,2.90
2019-04-20T18:39:27.266Z,3.33
2019-04-20T18:41:57.057Z,3.10
2019-04-20T18:44:32.382Z,3.10
2019-04-20T18:47:19.814Z,3.00
2019-04-20T18:49:43.063Z,2.73
2019-04-20T18:52:01.847Z,3.13
2019-04-20T18:54:39.087Z,3.00
2019-04-20T18:57:11.378Z,3.10
2019-04-20T18:59:42.860Z,3.93
2019-04-20T19:02:18.532Z,2.87
2019-04-20T19:04:44.000Z,3.40
2019-04-20T19:07:15.297Z,2.90
2019-04-20T19:09:48.490Z,2.73
2019-04-20T19:12:30.041Z,2.90
2019-04-20T19:15:13.463Z,3.93
2019-04-20T19:18:05.741Z,3.40
2019-04-20T19:20:33.032Z,3.50
2019-04-20T19:23:04.370Z,3.27
2019-04-20T19:25:39.345Z,2.53
2019-04-20T19:28:10.348Z,3.73
2019-04-20T19:30:49.949Z,2.60
2019-04-20T19:33:30.911Z,2.90
2019-04-20T19:35:56.165Z,3.10
2019-04-20T19:38:24.478Z,3.00
2019-04-20T19:41:01.089Z,2.90
2019-04-20T19:43:35.136Z,3.60
2019-04-20T19:48:45.039Z,3.53
2019-04-20T19:51:29.899Z,3.27
2019-04-20T19:54:04.874Z,3.37
2019-04-20T19:56:31.009Z,3.40
2019-04-20T19:59:01.254Z,2.57
2019-04-20T20:01:17.742Z,3.20
2019-04-20T20:03:57.612Z,2.80
2019-04-20T20:06:29.326Z,3.40
2019-04-20T20:08:58.015Z,4.30
2019-04-20T20:11:30.232Z,4.00
2019-04-20T20:13:59.161Z,3.30
2019-04-20T20:16:50.455Z,2.87
2019-04-20T20:19:13.241Z,3.50
2019-04-20T20:21:54.541Z,3.80
2019-04-20T20:24:10.774Z,3.40
2019-04-20T20:26:44.893Z,3.90
2019-04-20T20:29:23.238Z,3.80
2019-04-20T20:32:03.681Z,3.57
2019-04-20T20:34:26.796Z,3.43
2019-04-20T20:36:57.149Z,6.03
2019-04-20T20:39:27.606Z,3.50
2019-04-20T20:42:06.566Z,3.53
2019-04-20T20:44:37.804Z,4.10
2019-04-20T20:47:12.867Z,3.70
2019-04-20T20:49:56.717Z,4.40
2019-04-20T20:52:26.350Z,4.23
2019-04-20T20:54:49.753Z,3.53
2019-04-20T20:57:13.236Z,3.80
2019-04-20T20:59:51.608Z,3.53
2019-04-20T21:02:20.630Z,4.07
2019-04-20T21:04:45.806Z,4.30
2019-04-20T21:07:16.547Z,3.53
2019-04-20T21:09:48.324Z,3.80
2019-04-20T21:12:21.604Z,3.50
2019-04-20T21:14:51.421Z,4.00
2019-04-20T21:17:25.524Z,3.20
2019-04-20T21:20:14.249Z,3.60
2019-04-20T21:22:45.019Z,4.00
2019-04-20T21:25:01.015Z,3.53
2019-04-20T21:27:32.912Z,3.63
2019-04-20T21:30:05.465Z,4.70
2019-04-20T21:32:43.452Z,4.43
2019-04-20T21:35:11.096Z,4.73
2019-04-20T21:37:48.302Z,4.00
2019-04-20T21:40:23.624Z,5.00
2019-04-20T21:42:52.516Z,3.93
2019-04-20T21:45:23.586Z,3.97
2019-04-20T21:47:52.604Z,5.20
2019-04-20T21:50:39.624Z,4.50
2019-04-20T21:53:06.039Z,4.47
2019-04-20T21:55:29.976Z,4.10
2019-04-20T21:58:03.570Z,4.70
2019-04-20T22:01:04.388Z,3.83
2019-04-20T22:03:24.723Z,4.53
2019-04-20T22:06:08.542Z,3.90
2019-04-20T22:08:44.531Z,4.77
2019-04-20T22:11:11.823Z,4.20
2019-04-20T22:13:45.771Z,4.10
2019-04-20T22:16:17.128Z,5.20
2019-04-20T22:18:54.022Z,4.17
2019-04-20T22:21:26.576Z,4.53
2019-04-20T22:24:06.458Z,4.47
2019-04-20T22:26:32.722Z,4.63
2019-04-20T22:28:58.222Z,4.47
2019-04-20T22:31:29.923Z,4.67
2019-04-20T22:34:06.407Z,4.00
2019-04-20T22:36:38.568Z,4.70
2019-04-20T22:39:09.565Z,4.80
2019-04-20T22:41:53.625Z,4.73
2019-04-20T22:44:24.591Z,4.27
2019-04-20T22:46:54.321Z,4.47
2019-04-20T22:49:40.853Z,5.07
2019-04-20T22:52:05.890Z,4.37
2019-04-20T22:54:46.691Z,4.77
2019-04-20T22:57:12.664Z,4.57
2019-04-20T22:59:47.070Z,3.77
2019-04-20T23:02:09.789Z,4.27
2019-04-20T23:04:42.562Z,4.20
2019-04-20T23:07:14.757Z,4.50
2019-04-20T23:09:52.165Z,4.10
2019-04-20T23:12:22.588Z,4.00
2019-04-20T23:14:50.422Z,4.50
2019-04-20T23:17:26.950Z,4.50
2019-04-20T23:19:57.489Z,5.57
2019-04-20T23:22:32.203Z,5.03
2019-04-20T23:24:59.560Z,5.07
2019-04-20T23:27:32.093Z,4.60
2019-04-20T23:30:11.016Z,4.70
2019-04-20T23:32:36.115Z,4.20
2019-04-20T23:35:13.046Z,4.50
2019-04-20T23:37:40.572Z,4.83
2019-04-20T23:40:14.830Z,3.90
2019-04-20T23:42:51.747Z,4.80
2019-04-20T23:45:47.324Z,4.77
2019-04-20T23:48:28.331Z,4.10
2019-04-20T23:51:10.275Z,4.60
2019-04-20T23:53:45.456Z,4.30
2019-04-20T23:56:03.656Z,4.87
2019-04-20T23:58:40.646Z,4.43
